sensor_id;sensor_type;location;lat;lon;timestamp;P1;durP1;ratioP1;P2;durP2;ratioP2
26989;SDS011;14537;47.788;11.858;2022-12-29T00:01:36;12.50;;;3.95;;
26989;SDS011;14537;47.788;11.858;2022-12-29T00:04:03;9.60;;;3.45;;
26989;SDS011;14537;47.788;11.858;2022-12-29T00:06:29;11.65;;;3.55;;
26989;SDS011;14537;47.788;11.858;2022-12-29T00:08:55;10.73;;;3.38;;
26989;SDS011;14537;47.788;11.858;2022-12-29T00:11:22;12.48;;;3.90;;
26989;SDS011;14537;47.788;11.858;2022-12-29T00:13:49;8.68;;;3.13;;
26989;SDS011;14537;47.788;11.858;2022-12-29T00:16:34;9.68;;;3.78;;
26989;SDS011;14537;47.788;11.858;2022-12-29T00:19:00;8.60;;;2.45;;
26989;SDS011;14537;47.788;11.858;2022-12-29T00:21:27;11.02;;;3.45;;
26989;SDS011;14537;47.788;11.858;2022-12-29T00:24:12;5.95;;;2.70;;
26989;SDS011;14537;47.788;11.858;2022-12-29T00:26:58;8.13;;;2.78;;
26989;SDS011;14537;47.788;11.858;2022-12-29T00:29:47;6.55;;;2.95;;
26989;SDS011;14537;47.788;11.858;2022-12-29T00:32:34;4.65;;;2.70;;
26989;SDS011;14537;47.788;11.858;2022-12-29T00:35:22;8.55;;;2.78;;
26989;SDS011;14537;47.788;11.858;2022-12-29T00:37:48;7.35;;;2.72;;
26989;SDS011;14537;47.788;11.858;2022-12-29T00:40:33;4.75;;;1.70;;
26989;SDS011;14537;47.788;11.858;2022-12-29T00:43:34;6.63;;;2.33;;
26989;SDS011;14537;47.788;11.858;2022-12-29T00:46:18;5.53;;;1.63;;
26989;SDS011;14537;47.788;11.858;2022-12-29T00:48:44;3.80;;;1.42;;
26989;SDS011;14537;47.788;11.858;2022-12-29T00:51:28;5.15;;;2.78;;
26989;SDS011;14537;47.788;11.858;2022-12-29T00:53:54;5.32;;;2.35;;
26989;SDS011;14537;47.788;11.858;2022-12-29T00:56:19;6.90;;;2.25;;
26989;SDS011;14537;47.788;11.858;2022-12-29T00:58:45;4.75;;;2.20;;
26989;SDS011;14537;47.788;11.858;2022-12-29T01:01:10;4.75;;;1.80;;
26989;SDS011;14537;47.788;11.858;2022-12-29T01:03:37;3.05;;;1.67;;
26989;SDS011;14537;47.788;11.858;2022-12-29T01:06:04;1.83;;;1.17;;
26989;SDS011;14537;47.788;11.858;2022-12-29T01:08:31;0.98;;;0.73;;
26989;SDS011;14537;47.788;11.858;2022-12-29T01:11:01;3.47;;;1.58;;
26989;SDS011;14537;47.788;11.858;2022-12-29T01:13:29;2.08;;;1.38;;
26989;SDS011;14537;47.788;11.858;2022-12-29T01:15:55;2.35;;;1.35;;
26989;SDS011;14537;47.788;11.858;2022-12-29T01:18:20;1.23;;;1.10;;
26989;SDS011;14537;47.788;11.858;2022-12-29T01:20:47;3.75;;;1.10;;
26989;SDS011;14537;47.788;11.858;2022-12-29T01:23:12;2.35;;;0.95;;
26989;SDS011;14537;47.788;11.858;2022-12-29T01:25:38;1.02;;;0.93;;
26989;SDS011;14537;47.788;11.858;2022-12-29T01:28:04;1.88;;;1.10;;
26989;SDS011;14537;47.788;11.858;2022-12-29T01:30:30;1.92;;;1.20;;
26989;SDS011;14537;47.788;11.858;2022-12-29T01:32:57;1.73;;;0.90;;
26989;SDS011;14537;47.788;11.858;2022-12-29T01:35:22;4.63;;;1.52;;
26989;SDS011;14537;47.788;11.858;2022-12-29T01:37:48;2.45;;;1.10;;
26989;SDS011;14537;47.788;11.858;2022-12-29T01:40:13;1.20;;;0.75;;
26989;SDS011;14537;47.788;11.858;2022-12-29T01:42:39;1.63;;;0.90;;
26989;SDS011;14537;47.788;11.858;2022-12-29T01:45:09;0.80;;;0.60;;
26989;SDS011;14537;47.788;11.858;2022-12-29T01:47:38;1.67;;;0.82;;
26989;SDS011;14537;47.788;11.858;2022-12-29T01:50:23;3.75;;;1.23;;
26989;SDS011;14537;47.788;11.858;2022-12-29T01:53:20;1.95;;;1.27;;
26989;SDS011;14537;47.788;11.858;2022-12-29T01:55:53;6.07;;;1.30;;
26989;SDS011;14537;47.788;11.858;2022-12-29T01:58:22;1.42;;;1.00;;
26989;SDS011;14537;47.788;11.858;2022-12-29T02:00:51;1.00;;;0.77;;
26989;SDS011;14537;47.788;11.858;2022-12-29T02:03:17;1.15;;;0.80;;
26989;SDS011;14537;47.788;11.858;2022-12-29T02:05:56;2.88;;;1.30;;
26989;SDS011;14537;47.788;11.858;2022-12-29T02:08:35;1.70;;;1.08;;
26989;SDS011;14537;47.788;11.858;2022-12-29T02:11:01;2.28;;;1.33;;
26989;SDS011;14537;47.788;11.858;2022-12-29T02:13:28;3.17;;;1.17;;
26989;SDS011;14537;47.788;11.858;2022-12-29T02:26:38;2.10;;;0.77;;
26989;SDS011;14537;47.788;11.858;2022-12-29T02:29:15;2.13;;;1.02;;
26989;SDS011;14537;47.788;11.858;2022-12-29T02:31:58;1.67;;;1.13;;
26989;SDS011;14537;47.788;11.858;2022-12-29T02:34:53;3.05;;;1.30;;
26989;SDS011;14537;47.788;11.858;2022-12-29T02:40:15;5.82;;;1.40;;
26989;SDS011;14537;47.788;11.858;2022-12-29T02:43:01;1.85;;;1.00;;
26989;SDS011;14537;47.788;11.858;2022-12-29T02:48:21;2.33;;;0.75;;
26989;SDS011;14537;47.788;11.858;2022-12-29T02:53:28;1.42;;;0.77;;
26989;SDS011;14537;47.788;11.858;2022-12-29T02:56:15;1.33;;;0.82;;
26989;SDS011;14537;47.788;11.858;2022-12-29T02:58:41;1.55;;;0.90;;
26989;SDS011;14537;47.788;11.858;2022-12-29T03:06:56;2.50;;;1.17;;
26989;SDS011;14537;47.788;11.858;2022-12-29T03:10:04;4.47;;;1.65;;
26989;SDS011;14537;47.788;11.858;2022-12-29T03:12:30;4.78;;;1.60;;
26989;SDS011;14537;47.788;11.858;2022-12-29T03:15:25;3.10;;;1.27;;
26989;SDS011;14537;47.788;11.858;2022-12-29T03:18:21;5.30;;;1.10;;
26989;SDS011;14537;47.788;11.858;2022-12-29T03:21:14;3.97;;;1.67;;
26989;SDS011;14537;47.788;11.858;2022-12-29T03:23:45;10.93;;;1.85;;
26989;SDS011;14537;47.788;11.858;2022-12-29T03:26:14;6.47;;;1.77;;
26989;SDS011;14537;47.788;11.858;2022-12-29T03:28:46;7.40;;;1.98;;
26989;SDS011;14537;47.788;11.858;2022-12-29T03:31:15;4.75;;;1.80;;
26989;SDS011;14537;47.788;11.858;2022-12-29T03:33:42;5.35;;;1.90;;
26989;SDS011;14537;47.788;11.858;2022-12-29T03:36:10;5.32;;;1.98;;
26989;SDS011;14537;47.788;11.858;2022-12-29T03:38:50;4.28;;;1.48;;
26989;SDS011;14537;47.788;11.858;2022-12-29T03:41:43;4.60;;;1.17;;
26989;SDS011;14537;47.788;11.858;2022-12-29T03:44:10;3.17;;;1.33;;
26989;SDS011;14537;47.788;11.858;2022-12-29T03:46:37;7.22;;;1.55;;
26989;SDS011;14537;47.788;11.858;2022-12-29T03:49:03;4.15;;;1.85;;
26989;SDS011;14537;47.788;11.858;2022-12-29T03:51:28;6.65;;;1.40;;
26989;SDS011;14537;47.788;11.858;2022-12-29T03:53:54;3.67;;;1.70;;
26989;SDS011;14537;47.788;11.858;2022-12-29T03:56:20;2.85;;;1.45;;
26989;SDS011;14537;47.788;11.858;2022-12-29T03:58:45;3.90;;;1.33;;
26989;SDS011;14537;47.788;11.858;2022-12-29T04:01:11;4.38;;;1.30;;
26989;SDS011;14537;47.788;11.858;2022-12-29T04:03:37;3.97;;;1.60;;
26989;SDS011;14537;47.788;11.858;2022-12-29T04:06:03;9.20;;;2.38;;
26989;SDS011;14537;47.788;11.858;2022-12-29T04:08:29;4.32;;;2.22;;
26989;SDS011;14537;47.788;11.858;2022-12-29T04:10:54;9.25;;;2.63;;
26989;SDS011;14537;47.788;11.858;2022-12-29T04:13:20;5.10;;;1.90;;
26989;SDS011;14537;47.788;11.858;2022-12-29T04:15:46;3.33;;;1.35;;
26989;SDS011;14537;47.788;11.858;2022-12-29T04:18:12;3.95;;;1.45;;
26989;SDS011;14537;47.788;11.858;2022-12-29T04:20:38;1.52;;;1.05;;
26989;SDS011;14537;47.788;11.858;2022-12-29T04:23:22;3.63;;;1.75;;
26989;SDS011;14537;47.788;11.858;2022-12-29T04:25:48;82.10;;;24.88;;
26989;SDS011;14537;47.788;11.858;2022-12-29T04:28:14;3.60;;;1.77;;
26989;SDS011;14537;47.788;11.858;2022-12-29T04:30:40;4.28;;;1.60;;
26989;SDS011;14537;47.788;11.858;2022-12-29T04:33:07;3.85;;;1.83;;
26989;SDS011;14537;47.788;11.858;2022-12-29T04:35:32;3.38;;;1.42;;
26989;SDS011;14537;47.788;11.858;2022-12-29T04:37:58;4.30;;;1.75;;
26989;SDS011;14537;47.788;11.858;2022-12-29T04:40:23;2.83;;;1.50;;
26989;SDS011;14537;47.788;11.858;2022-12-29T04:42:49;4.75;;;1.90;;
26989;SDS011;14537;47.788;11.858;2022-12-29T04:45:15;4.43;;;1.65;;
26989;SDS011;14537;47.788;11.858;2022-12-29T04:47:41;3.05;;;1.30;;
26989;SDS011;14537;47.788;11.858;2022-12-29T04:50:07;3.92;;;1.48;;
26989;SDS011;14537;47.788;11.858;2022-12-29T04:52:32;2.90;;;1.70;;
26989;SDS011;14537;47.788;11.858;2022-12-29T04:54:58;4.22;;;1.27;;
26989;SDS011;14537;47.788;11.858;2022-12-29T04:57:24;3.38;;;1.30;;
26989;SDS011;14537;47.788;11.858;2022-12-29T04:59:50;2.20;;;1.17;;
26989;SDS011;14537;47.788;11.858;2022-12-29T05:02:15;2.50;;;1.13;;
26989;SDS011;14537;47.788;11.858;2022-12-29T05:04:41;2.47;;;1.48;;
26989;SDS011;14537;47.788;11.858;2022-12-29T05:07:07;4.35;;;1.60;;
26989;SDS011;14537;47.788;11.858;2022-12-29T05:09:33;4.85;;;1.10;;
26989;SDS011;14537;47.788;11.858;2022-12-29T05:11:59;4.60;;;1.67;;
26989;SDS011;14537;47.788;11.858;2022-12-29T05:14:24;4.97;;;1.65;;
26989;SDS011;14537;47.788;11.858;2022-12-29T05:16:50;4.22;;;1.60;;
26989;SDS011;14537;47.788;11.858;2022-12-29T05:19:15;3.60;;;1.45;;
26989;SDS011;14537;47.788;11.858;2022-12-29T05:21:41;2.13;;;1.15;;
26989;SDS011;14537;47.788;11.858;2022-12-29T05:24:07;1.38;;;0.80;;
26989;SDS011;14537;47.788;11.858;2022-12-29T05:26:33;1.58;;;0.88;;
26989;SDS011;14537;47.788;11.858;2022-12-29T05:28:59;3.50;;;1.42;;
26989;SDS011;14537;47.788;11.858;2022-12-29T05:31:25;1.83;;;1.33;;
26989;SDS011;14537;47.788;11.858;2022-12-29T05:33:51;2.95;;;1.00;;
26989;SDS011;14537;47.788;11.858;2022-12-29T05:36:16;3.38;;;1.38;;
26989;SDS011;14537;47.788;11.858;2022-12-29T05:38:42;2.78;;;1.27;;
26989;SDS011;14537;47.788;11.858;2022-12-29T05:41:08;4.90;;;1.38;;
26989;SDS011;14537;47.788;11.858;2022-12-29T05:43:34;1.20;;;0.95;;
26989;SDS011;14537;47.788;11.858;2022-12-29T05:45:59;5.45;;;1.92;;
26989;SDS011;14537;47.788;11.858;2022-12-29T05:48:25;5.03;;;1.60;;
26989;SDS011;14537;47.788;11.858;2022-12-29T05:50:51;4.68;;;1.55;;
26989;SDS011;14537;47.788;11.858;2022-12-29T05:53:17;5.72;;;1.40;;
26989;SDS011;14537;47.788;11.858;2022-12-29T05:55:43;6.97;;;1.98;;
26989;SDS011;14537;47.788;11.858;2022-12-29T05:58:09;5.40;;;1.60;;
26989;SDS011;14537;47.788;11.858;2022-12-29T06:00:35;7.45;;;1.77;;
26989;SDS011;14537;47.788;11.858;2022-12-29T06:03:01;6.88;;;2.03;;
26989;SDS011;14537;47.788;11.858;2022-12-29T06:05:26;4.47;;;1.60;;
26989;SDS011;14537;47.788;11.858;2022-12-29T06:07:52;2.65;;;1.45;;
26989;SDS011;14537;47.788;11.858;2022-12-29T06:10:17;6.50;;;1.77;;
26989;SDS011;14537;47.788;11.858;2022-12-29T06:12:43;5.00;;;1.58;;
26989;SDS011;14537;47.788;11.858;2022-12-29T06:15:09;4.15;;;1.50;;
26989;SDS011;14537;47.788;11.858;2022-12-29T06:17:35;4.57;;;2.13;;
26989;SDS011;14537;47.788;11.858;2022-12-29T06:20:01;6.85;;;1.33;;
26989;SDS011;14537;47.788;11.858;2022-12-29T06:22:27;4.95;;;1.55;;
26989;SDS011;14537;47.788;11.858;2022-12-29T06:24:53;2.50;;;1.20;;
26989;SDS011;14537;47.788;11.858;2022-12-29T06:27:19;2.22;;;1.02;;
26989;SDS011;14537;47.788;11.858;2022-12-29T06:29:44;2.05;;;1.25;;
26989;SDS011;14537;47.788;11.858;2022-12-29T06:32:11;1.88;;;0.98;;
26989;SDS011;14537;47.788;11.858;2022-12-29T06:34:36;1.90;;;1.17;;
26989;SDS011;14537;47.788;11.858;2022-12-29T06:37:02;3.20;;;1.40;;
26989;SDS011;14537;47.788;11.858;2022-12-29T06:39:27;3.33;;;1.20;;
26989;SDS011;14537;47.788;11.858;2022-12-29T06:41:53;2.97;;;1.30;;
26989;SDS011;14537;47.788;11.858;2022-12-29T06:44:20;2.63;;;1.40;;
26989;SDS011;14537;47.788;11.858;2022-12-29T06:46:46;1.60;;;1.00;;
26989;SDS011;14537;47.788;11.858;2022-12-29T06:49:13;3.28;;;1.30;;
26989;SDS011;14537;47.788;11.858;2022-12-29T06:51:39;2.90;;;1.17;;
26989;SDS011;14537;47.788;11.858;2022-12-29T06:54:04;2.42;;;1.20;;
26989;SDS011;14537;47.788;11.858;2022-12-29T06:56:30;3.42;;;1.70;;
26989;SDS011;14537;47.788;11.858;2022-12-29T06:58:56;5.72;;;1.50;;
26989;SDS011;14537;47.788;11.858;2022-12-29T07:01:22;3.58;;;1.80;;
26989;SDS011;14537;47.788;11.858;2022-12-29T07:03:47;27.77;;;7.25;;
26989;SDS011;14537;47.788;11.858;2022-12-29T07:06:13;6.15;;;2.40;;
26989;SDS011;14537;47.788;11.858;2022-12-29T07:08:39;8.73;;;2.17;;
26989;SDS011;14537;47.788;11.858;2022-12-29T07:11:05;5.05;;;1.48;;
26989;SDS011;14537;47.788;11.858;2022-12-29T07:13:30;2.58;;;1.50;;
26989;SDS011;14537;47.788;11.858;2022-12-29T07:15:56;4.13;;;1.45;;
26989;SDS011;14537;47.788;11.858;2022-12-29T07:18:22;2.83;;;1.77;;
26989;SDS011;14537;47.788;11.858;2022-12-29T07:20:47;3.45;;;1.38;;
26989;SDS011;14537;47.788;11.858;2022-12-29T07:23:13;2.45;;;1.65;;
26989;SDS011;14537;47.788;11.858;2022-12-29T07:25:38;3.95;;;1.48;;
26989;SDS011;14537;47.788;11.858;2022-12-29T07:28:06;8.95;;;3.22;;
26989;SDS011;14537;47.788;11.858;2022-12-29T07:30:32;7.28;;;3.08;;
26989;SDS011;14537;47.788;11.858;2022-12-29T07:32:57;9.82;;;3.35;;
26989;SDS011;14537;47.788;11.858;2022-12-29T07:35:23;8.27;;;3.47;;
26989;SDS011;14537;47.788;11.858;2022-12-29T07:37:49;7.82;;;3.35;;
26989;SDS011;14537;47.788;11.858;2022-12-29T07:40:15;7.45;;;3.58;;
26989;SDS011;14537;47.788;11.858;2022-12-29T07:42:40;10.35;;;3.47;;
26989;SDS011;14537;47.788;11.858;2022-12-29T07:45:06;7.50;;;3.15;;
26989;SDS011;14537;47.788;11.858;2022-12-29T07:47:34;6.60;;;2.67;;
26989;SDS011;14537;47.788;11.858;2022-12-29T07:49:59;9.60;;;3.22;;
26989;SDS011;14537;47.788;11.858;2022-12-29T07:52:25;6.47;;;2.55;;
26989;SDS011;14537;47.788;11.858;2022-12-29T07:54:50;7.43;;;3.30;;
26989;SDS011;14537;47.788;11.858;2022-12-29T07:57:16;5.03;;;2.20;;
26989;SDS011;14537;47.788;11.858;2022-12-29T07:59:42;5.97;;;2.50;;
26989;SDS011;14537;47.788;11.858;2022-12-29T08:02:09;5.03;;;2.17;;
26989;SDS011;14537;47.788;11.858;2022-12-29T08:04:36;6.05;;;2.35;;
26989;SDS011;14537;47.788;11.858;2022-12-29T08:07:02;5.10;;;2.25;;
26989;SDS011;14537;47.788;11.858;2022-12-29T08:09:27;4.75;;;2.47;;
26989;SDS011;14537;47.788;11.858;2022-12-29T08:11:53;4.15;;;2.25;;
26989;SDS011;14537;47.788;11.858;2022-12-29T08:14:19;8.70;;;2.75;;
26989;SDS011;14537;47.788;11.858;2022-12-29T08:16:45;6.25;;;2.90;;
26989;SDS011;14537;47.788;11.858;2022-12-29T08:19:11;10.10;;;3.53;;
26989;SDS011;14537;47.788;11.858;2022-12-29T08:21:37;9.65;;;2.30;;
26989;SDS011;14537;47.788;11.858;2022-12-29T08:24:03;4.38;;;2.40;;
26989;SDS011;14537;47.788;11.858;2022-12-29T08:26:29;7.65;;;2.17;;
26989;SDS011;14537;47.788;11.858;2022-12-29T08:28:54;6.47;;;2.40;;
26989;SDS011;14537;47.788;11.858;2022-12-29T08:31:21;5.63;;;2.47;;
26989;SDS011;14537;47.788;11.858;2022-12-29T08:33:48;4.88;;;2.30;;
26989;SDS011;14537;47.788;11.858;2022-12-29T08:36:13;3.78;;;2.00;;
26989;SDS011;14537;47.788;11.858;2022-12-29T08:38:39;4.80;;;2.17;;
26989;SDS011;14537;47.788;11.858;2022-12-29T08:41:04;7.32;;;2.85;;
26989;SDS011;14537;47.788;11.858;2022-12-29T08:43:30;9.23;;;3.92;;
26989;SDS011;14537;47.788;11.858;2022-12-29T08:45:59;11.05;;;4.13;;
26989;SDS011;14537;47.788;11.858;2022-12-29T08:48:25;13.25;;;5.03;;
26989;SDS011;14537;47.788;11.858;2022-12-29T08:50:51;17.25;;;5.18;;
26989;SDS011;14537;47.788;11.858;2022-12-29T08:53:17;14.45;;;4.97;;
26989;SDS011;14537;47.788;11.858;2022-12-29T08:55:47;14.75;;;4.93;;
26989;SDS011;14537;47.788;11.858;2022-12-29T08:58:19;11.63;;;4.47;;
26989;SDS011;14537;47.788;11.858;2022-12-29T09:00:44;14.18;;;5.38;;
26989;SDS011;14537;47.788;11.858;2022-12-29T09:03:10;11.82;;;4.68;;
26989;SDS011;14537;47.788;11.858;2022-12-29T09:05:36;13.70;;;4.95;;
26989;SDS011;14537;47.788;11.858;2022-12-29T09:08:01;10.60;;;4.72;;
26989;SDS011;14537;47.788;11.858;2022-12-29T09:10:27;9.75;;;4.53;;
26989;SDS011;14537;47.788;11.858;2022-12-29T09:12:53;12.05;;;4.97;;
26989;SDS011;14537;47.788;11.858;2022-12-29T09:15:19;8.88;;;3.85;;
26989;SDS011;14537;47.788;11.858;2022-12-29T09:17:44;6.72;;;3.38;;
26989;SDS011;14537;47.788;11.858;2022-12-29T09:20:11;12.32;;;5.25;;
26989;SDS011;14537;47.788;11.858;2022-12-29T09:22:39;10.20;;;4.77;;
26989;SDS011;14537;47.788;11.858;2022-12-29T09:25:05;10.23;;;4.85;;
26989;SDS011;14537;47.788;11.858;2022-12-29T09:27:31;11.15;;;4.25;;
26989;SDS011;14537;47.788;11.858;2022-12-29T09:29:57;12.40;;;4.07;;
26989;SDS011;14537;47.788;11.858;2022-12-29T09:32:22;8.57;;;3.50;;
26989;SDS011;14537;47.788;11.858;2022-12-29T09:34:48;6.97;;;3.63;;
26989;SDS011;14537;47.788;11.858;2022-12-29T09:37:14;8.57;;;3.83;;
26989;SDS011;14537;47.788;11.858;2022-12-29T09:39:39;10.20;;;4.15;;
26989;SDS011;14537;47.788;11.858;2022-12-29T09:42:26;8.52;;;3.50;;
26989;SDS011;14537;47.788;11.858;2022-12-29T09:45:15;9.95;;;3.40;;
26989;SDS011;14537;47.788;11.858;2022-12-29T09:47:45;11.43;;;4.00;;
26989;SDS011;14537;47.788;11.858;2022-12-29T09:50:24;15.55;;;5.93;;
26989;SDS011;14537;47.788;11.858;2022-12-29T09:55:44;19.52;;;6.82;;
26989;SDS011;14537;47.788;11.858;2022-12-29T09:58:30;14.35;;;6.07;;
26989;SDS011;14537;47.788;11.858;2022-12-29T10:03:57;9.95;;;4.65;;
26989;SDS011;14537;47.788;11.858;2022-12-29T10:06:31;14.98;;;5.43;;
26989;SDS011;14537;47.788;11.858;2022-12-29T10:12:03;11.48;;;4.90;;
26989;SDS011;14537;47.788;11.858;2022-12-29T10:25:23;9.90;;;4.22;;
26989;SDS011;14537;47.788;11.858;2022-12-29T10:27:51;10.27;;;4.03;;
26989;SDS011;14537;47.788;11.858;2022-12-29T10:30:20;14.02;;;6.60;;
26989;SDS011;14537;47.788;11.858;2022-12-29T10:32:54;9.57;;;4.70;;
26989;SDS011;14537;47.788;11.858;2022-12-29T10:35:23;7.53;;;4.25;;
26989;SDS011;14537;47.788;11.858;2022-12-29T10:40:38;6.18;;;3.15;;
26989;SDS011;14537;47.788;11.858;2022-12-29T10:46:17;13.80;;;4.47;;
26989;SDS011;14537;47.788;11.858;2022-12-29T10:51:16;7.57;;;3.13;;
26989;SDS011;14537;47.788;11.858;2022-12-29T10:57:05;7.78;;;3.25;;
26989;SDS011;14537;47.788;11.858;2022-12-29T10:59:38;9.68;;;3.30;;
26989;SDS011;14537;47.788;11.858;2022-12-29T11:09:55;8.57;;;3.17;;
26989;SDS011;14537;47.788;11.858;2022-12-29T11:12:55;5.85;;;2.85;;
26989;SDS011;14537;47.788;11.858;2022-12-29T11:15:25;7.38;;;2.83;;
26989;SDS011;14537;47.788;11.858;2022-12-29T11:18:00;9.07;;;2.25;;
26989;SDS011;14537;47.788;11.858;2022-12-29T11:20:30;4.68;;;2.63;;
26989;SDS011;14537;47.788;11.858;2022-12-29T11:23:02;8.38;;;3.00;;
26989;SDS011;14537;47.788;11.858;2022-12-29T11:25:30;5.82;;;2.75;;
26989;SDS011;14537;47.788;11.858;2022-12-29T11:28:00;6.05;;;2.88;;
26989;SDS011;14537;47.788;11.858;2022-12-29T11:30:49;5.40;;;2.22;;
26989;SDS011;14537;47.788;11.858;2022-12-29T11:33:27;5.75;;;2.72;;
26989;SDS011;14537;47.788;11.858;2022-12-29T11:35:56;4.97;;;2.08;;
26989;SDS011;14537;47.788;11.858;2022-12-29T11:38:36;6.70;;;2.88;;
26989;SDS011;14537;47.788;11.858;2022-12-29T11:41:05;6.15;;;3.17;;
26989;SDS011;14537;47.788;11.858;2022-12-29T11:43:39;5.45;;;3.20;;
26989;SDS011;14537;47.788;11.858;2022-12-29T11:46:12;6.75;;;2.97;;
26989;SDS011;14537;47.788;11.858;2022-12-29T11:48:43;3.47;;;2.05;;
26989;SDS011;14537;47.788;11.858;2022-12-29T11:51:12;3.95;;;1.25;;
26989;SDS011;14537;47.788;11.858;2022-12-29T11:53:46;2.13;;;1.02;;
26989;SDS011;14537;47.788;11.858;2022-12-29T11:56:16;2.50;;;1.35;;
26989;SDS011;14537;47.788;11.858;2022-12-29T11:58:44;3.67;;;1.77;;
26989;SDS011;14537;47.788;11.858;2022-12-29T12:01:17;3.55;;;1.42;;
26989;SDS011;14537;47.788;11.858;2022-12-29T12:04:00;1.90;;;0.98;;
26989;SDS011;14537;47.788;11.858;2022-12-29T12:06:30;3.92;;;1.50;;
26989;SDS011;14537;47.788;11.858;2022-12-29T12:09:02;2.03;;;1.00;;
26989;SDS011;14537;47.788;11.858;2022-12-29T12:11:32;2.55;;;1.30;;
26989;SDS011;14537;47.788;11.858;2022-12-29T12:16:49;4.57;;;1.42;;
26989;SDS011;14537;47.788;11.858;2022-12-29T12:19:43;3.42;;;1.73;;
26989;SDS011;14537;47.788;11.858;2022-12-29T12:22:13;6.78;;;2.80;;
26989;SDS011;14537;47.788;11.858;2022-12-29T12:24:49;7.82;;;3.30;;
26989;SDS011;14537;47.788;11.858;2022-12-29T12:27:24;4.20;;;1.95;;
26989;SDS011;14537;47.788;11.858;2022-12-29T12:30:17;4.45;;;1.73;;
26989;SDS011;14537;47.788;11.858;2022-12-29T12:32:46;8.05;;;2.20;;
26989;SDS011;14537;47.788;11.858;2022-12-29T12:43:39;17.65;;;5.82;;
26989;SDS011;14537;47.788;11.858;2022-12-29T12:46:33;10.25;;;3.63;;
26989;SDS011;14537;47.788;11.858;2022-12-29T13:05:38;5.68;;;2.35;;
26989;SDS011;14537;47.788;11.858;2022-12-29T13:18:52;8.05;;;3.70;;
26989;SDS011;14537;47.788;11.858;2022-12-29T13:24:47;6.07;;;1.92;;
26989;SDS011;14537;47.788;11.858;2022-12-29T13:35:10;2.88;;;1.75;;
26989;SDS011;14537;47.788;11.858;2022-12-29T13:37:53;3.83;;;1.80;;
26989;SDS011;14537;47.788;11.858;2022-12-29T13:40:50;7.72;;;1.40;;
26989;SDS011;14537;47.788;11.858;2022-12-29T13:43:24;5.57;;;1.67;;
26989;SDS011;14537;47.788;11.858;2022-12-29T13:45:57;4.32;;;1.70;;
26989;SDS011;14537;47.788;11.858;2022-12-29T13:48:35;2.75;;;1.40;;
26989;SDS011;14537;47.788;11.858;2022-12-29T13:51:13;7.10;;;1.48;;
26989;SDS011;14537;47.788;11.858;2022-12-29T13:56:40;3.25;;;1.40;;
26989;SDS011;14537;47.788;11.858;2022-12-29T13:59:19;4.45;;;1.48;;
26989;SDS011;14537;47.788;11.858;2022-12-29T14:01:49;7.13;;;1.70;;
26989;SDS011;14537;47.788;11.858;2022-12-29T14:04:24;1.50;;;1.00;;
26989;SDS011;14537;47.788;11.858;2022-12-29T14:07:02;3.15;;;1.55;;
26989;SDS011;14537;47.788;11.858;2022-12-29T14:17:34;12.73;;;4.10;;
26989;SDS011;14537;47.788;11.858;2022-12-29T14:20:00;9.85;;;3.10;;
26989;SDS011;14537;47.788;11.858;2022-12-29T14:22:27;11.57;;;3.90;;
26989;SDS011;14537;47.788;11.858;2022-12-29T14:24:53;8.73;;;3.85;;
26989;SDS011;14537;47.788;11.858;2022-12-29T14:29:45;3.60;;;1.75;;
26989;SDS011;14537;47.788;11.858;2022-12-29T14:35:00;5.45;;;1.45;;
26989;SDS011;14537;47.788;11.858;2022-12-29T14:37:45;4.70;;;1.58;;
26989;SDS011;14537;47.788;11.858;2022-12-29T14:40:16;4.20;;;1.67;;
26989;SDS011;14537;47.788;11.858;2022-12-29T14:42:44;8.50;;;1.58;;
26989;SDS011;14537;47.788;11.858;2022-12-29T14:47:45;8.52;;;2.22;;
26989;SDS011;14537;47.788;11.858;2022-12-29T14:57:41;5.85;;;2.33;;
26989;SDS011;14537;47.788;11.858;2022-12-29T15:02:47;7.45;;;2.33;;
26989;SDS011;14537;47.788;11.858;2022-12-29T15:05:40;10.98;;;2.92;;
26989;SDS011;14537;47.788;11.858;2022-12-29T15:08:06;7.97;;;3.00;;
26989;SDS011;14537;47.788;11.858;2022-12-29T15:10:45;11.38;;;3.83;;
26989;SDS011;14537;47.788;11.858;2022-12-29T15:13:20;10.00;;;3.25;;
26989;SDS011;14537;47.788;11.858;2022-12-29T15:15:48;9.55;;;3.58;;
26989;SDS011;14537;47.788;11.858;2022-12-29T15:20:49;15.52;;;3.60;;
26989;SDS011;14537;47.788;11.858;2022-12-29T15:23:18;25.15;;;8.85;;
26989;SDS011;14537;47.788;11.858;2022-12-29T15:25:52;39.03;;;13.88;;
26989;SDS011;14537;47.788;11.858;2022-12-29T15:28:21;21.52;;;8.55;;
26989;SDS011;14537;47.788;11.858;2022-12-29T15:30:51;18.08;;;7.43;;
26989;SDS011;14537;47.788;11.858;2022-12-29T15:33:21;16.52;;;6.20;;
26989;SDS011;14537;47.788;11.858;2022-12-29T15:35:51;15.80;;;6.32;;
26989;SDS011;14537;47.788;11.858;2022-12-29T15:38:23;14.63;;;5.90;;
26989;SDS011;14537;47.788;11.858;2022-12-29T15:40:55;15.02;;;6.63;;
26989;SDS011;14537;47.788;11.858;2022-12-29T15:46:23;9.80;;;5.25;;
26989;SDS011;14537;47.788;11.858;2022-12-29T15:48:48;13.25;;;5.43;;
26989;SDS011;14537;47.788;11.858;2022-12-29T15:51:22;16.13;;;6.60;;
26989;SDS011;14537;47.788;11.858;2022-12-29T15:53:56;16.05;;;7.00;;
26989;SDS011;14537;47.788;11.858;2022-12-29T15:56:22;20.17;;;7.25;;
26989;SDS011;14537;47.788;11.858;2022-12-29T15:58:49;13.68;;;5.65;;
26989;SDS011;14537;47.788;11.858;2022-12-29T16:01:37;14.52;;;4.50;;
26989;SDS011;14537;47.788;11.858;2022-12-29T16:04:04;15.27;;;4.25;;
26989;SDS011;14537;47.788;11.858;2022-12-29T16:06:34;14.35;;;4.70;;
26989;SDS011;14537;47.788;11.858;2022-12-29T16:09:15;9.65;;;3.92;;
26989;SDS011;14537;47.788;11.858;2022-12-29T16:11:55;10.13;;;4.13;;
26989;SDS011;14537;47.788;11.858;2022-12-29T16:14:31;12.85;;;3.85;;
26989;SDS011;14537;47.788;11.858;2022-12-29T16:17:02;19.08;;;6.93;;
26989;SDS011;14537;47.788;11.858;2022-12-29T16:19:32;17.38;;;7.40;;
26989;SDS011;14537;47.788;11.858;2022-12-29T16:21:59;23.75;;;7.93;;
26989;SDS011;14537;47.788;11.858;2022-12-29T16:24:29;11.18;;;4.90;;
26989;SDS011;14537;47.788;11.858;2022-12-29T16:29:23;23.10;;;7.28;;
26989;SDS011;14537;47.788;11.858;2022-12-29T16:36:57;18.38;;;7.05;;
26989;SDS011;14537;47.788;11.858;2022-12-29T16:39:35;17.45;;;6.20;;
26989;SDS011;14537;47.788;11.858;2022-12-29T16:45:06;21.42;;;8.38;;
26989;SDS011;14537;47.788;11.858;2022-12-29T16:50:37;22.95;;;9.05;;
26989;SDS011;14537;47.788;11.858;2022-12-29T16:53:04;21.85;;;7.63;;
26989;SDS011;14537;47.788;11.858;2022-12-29T16:55:32;16.02;;;6.85;;
26989;SDS011;14537;47.788;11.858;2022-12-29T16:57:58;25.73;;;8.63;;
26989;SDS011;14537;47.788;11.858;2022-12-29T17:00:26;27.15;;;9.98;;
26989;SDS011;14537;47.788;11.858;2022-12-29T17:02:54;24.25;;;10.45;;
26989;SDS011;14537;47.788;11.858;2022-12-29T17:05:23;32.25;;;11.32;;
26989;SDS011;14537;47.788;11.858;2022-12-29T17:07:48;34.03;;;12.82;;
26989;SDS011;14537;47.788;11.858;2022-12-29T17:10:15;42.28;;;14.68;;
26989;SDS011;14537;47.788;11.858;2022-12-29T17:12:42;45.25;;;15.93;;
26989;SDS011;14537;47.788;11.858;2022-12-29T17:17:51;31.95;;;12.23;;
26989;SDS011;14537;47.788;11.858;2022-12-29T17:20:20;38.55;;;14.20;;
26989;SDS011;14537;47.788;11.858;2022-12-29T17:22:51;39.80;;;15.40;;
26989;SDS011;14537;47.788;11.858;2022-12-29T17:25:26;40.42;;;13.55;;
26989;SDS011;14537;47.788;11.858;2022-12-29T17:27:54;32.63;;;12.85;;
26989;SDS011;14537;47.788;11.858;2022-12-29T17:32:50;33.95;;;12.75;;
26989;SDS011;14537;47.788;11.858;2022-12-29T17:35:18;32.20;;;12.60;;